Terminal Aerodrome Forecast
Issued by NWS Buffalo, NY

Home | Current Version | Previous Version | Text Only | Print | Product List | Glossary On
Versions: 1 2 3 4 5 6 7 8 9 10 11 12 13 14 15 16 17 18 19 20 21 22 23 24
000
FTUS41 KBUF 201100
TAFBUF
TAF
KBUF 201140Z 2012/2112 00000KT P6SM VCSH BKN100 BKN200
     FM201500 19006KT 4SM SHRA VCTS SCT040CB OVC060
     FM201900 21009KT 6SM BR VCSH SCT040 BKN060
     FM210300 18005KT 4SM SHRA OVC070
     FM210500 19006KT 6SM -SHRA BKN080
     FM210800 19005KT P6SM BKN035=

USA.gov is the U.S. government's official web portal to all federal, state and local government web resources and services.